Time;durP1;ratioP1;P1;durP2;ratioP2;P2;SDS_P1;SDS_P2;PMS_P1;PMS_P2;Temp;Humidity;BMP_temperature;BMP_pressure;BME280_temperature;BME280_humidity;BME280_pressure;Samples;Min_cycle;Max_cycle;Signal;HPM_P1;HPM_P2
2023/02/18 00:02:23;;;;;;;1.60;1.10;;;11.60;98.20;;;;;;5047468;28;20836;-75
2023/02/18 00:04:50;;;;;;;1.60;1.10;;;11.60;98.20;;;;;;5064288;28;20484;-75
2023/02/18 00:07:17;;;;;;;1.60;1.10;;;11.60;98.20;;;;;;5055740;28;20469;-75
2023/02/18 00:09:44;;;;;;;1.57;1.00;;;11.60;98.20;;;;;;5066440;28;20488;-76
2023/02/18 00:12:11;;;;;;;1.60;1.23;;;11.60;98.20;;;;;;5054745;28;20485;-76
2023/02/18 00:14:39;;;;;;;1.70;1.33;;;11.60;98.20;;;;;;5066358;28;20536;-75
2023/02/18 00:17:07;;;;;;;1.53;1.10;;;11.60;98.20;;;;;;5054301;28;20485;-76
2023/02/18 00:19:34;;;;;;;1.60;1.20;;;11.60;98.20;;;;;;5064109;28;20465;-75
2023/02/18 00:22:01;;;;;;;1.60;1.10;;;11.60;98.20;;;;;;5048272;28;20557;-76
2023/02/18 00:24:28;;;;;;;1.60;1.10;;;11.60;98.20;;;;;;5067829;28;20512;-75
2023/02/18 00:26:55;;;;;;;1.60;1.10;;;11.60;98.20;;;;;;5048337;28;20540;-76
2023/02/18 00:29:22;;;;;;;1.60;1.10;;;11.60;98.20;;;;;;5058809;28;20523;-75
2023/02/18 00:31:50;;;;;;;1.60;1.10;;;11.60;98.20;;;;;;5047506;28;20506;-76
2023/02/18 00:34:17;;;;;;;1.60;1.10;;;11.60;98.20;;;;;;5056494;28;20488;-75
2023/02/18 00:36:44;;;;;;;1.60;1.20;;;11.60;98.20;;;;;;5055249;28;20515;-76
2023/02/18 00:39:12;;;;;;;1.50;1.00;;;11.60;98.20;;;;;;5065964;28;20487;-75
2023/02/18 00:41:39;;;;;;;1.53;1.10;;;11.60;98.20;;;;;;5056250;28;21009;-75
2023/02/18 00:44:07;;;;;;;1.80;1.70;;;11.60;98.20;;;;;;5058412;28;20461;-76
2023/02/18 00:46:35;;;;;;;1.60;1.10;;;11.60;98.20;;;;;;5049090;28;21014;-76
2023/02/18 00:49:04;;;;;;;1.50;1.00;;;11.60;98.20;;;;;;5055073;28;20489;-75
2023/02/18 00:51:32;;;;;;;1.60;1.20;;;11.50;98.20;;;;;;5049339;28;20574;-76
2023/02/18 00:53:59;;;;;;;1.60;1.10;;;11.60;98.20;;;;;;5054961;28;20464;-75
2023/02/18 00:56:26;;;;;;;1.60;1.20;;;11.50;98.20;;;;;;5045737;28;20595;-75
2023/02/18 00:58:53;;;;;;;1.60;1.10;;;11.50;98.20;;;;;;5063834;28;20464;-75
2023/02/18 01:01:20;;;;;;;1.57;1.10;;;11.50;98.20;;;;;;5048119;28;20473;-75
2023/02/18 01:03:47;;;;;;;1.60;1.10;;;11.50;98.20;;;;;;5064356;28;20462;-75
2023/02/18 01:06:16;;;;;;;1.60;1.30;;;11.50;98.20;;;;;;5051905;28;20569;-76
2023/02/18 01:08:43;;;;;;;1.57;1.10;;;11.50;98.20;;;;;;5060723;28;20806;-75
2023/02/18 01:11:12;;;;;;;1.53;1.10;;;11.50;98.20;;;;;;5048052;28;20581;-75
2023/02/18 01:13:39;;;;;;;1.57;1.07;;;11.50;98.20;;;;;;5064163;28;20855;-75
2023/02/18 01:16:07;;;;;;;1.57;1.07;;;11.50;98.20;;;;;;5051971;28;20571;-75
2023/02/18 01:18:35;;;;;;;1.60;1.10;;;11.50;98.20;;;;;;5063981;28;20773;-75
2023/02/18 01:21:04;;;;;;;1.60;1.10;;;11.50;98.20;;;;;;5052310;28;20457;-75
2023/02/18 01:23:32;;;;;;;1.50;1.00;;;11.50;98.20;;;;;;5052043;28;20469;-75
2023/02/18 01:25:59;;;;;;;1.60;1.10;;;11.50;98.20;;;;;;5055089;28;20567;-76
2023/02/18 01:28:26;;;;;;;1.57;1.10;;;11.50;98.20;;;;;;5064718;28;20546;-76
2023/02/18 01:30:54;;;;;;;1.60;1.20;;;11.50;98.20;;;;;;5054186;28;20470;-76
2023/02/18 01:33:21;;;;;;;1.70;1.50;;;11.50;98.20;;;;;;5063624;28;20472;-76
2023/02/18 01:35:49;;;;;;;1.60;1.20;;;11.50;98.20;;;;;;5056674;28;20539;-75
2023/02/18 01:38:16;;;;;;;1.57;1.10;;;11.50;98.20;;;;;;5063230;28;20523;-76
2023/02/18 01:40:50;;;;;;;1.53;1.10;;;11.50;98.20;;;;;;5065810;28;20511;-76
2023/02/18 01:43:19;;;;;;;1.60;1.10;;;11.50;98.20;;;;;;5049920;28;20478;-75
2023/02/18 01:46:06;;;;;;;1.60;1.20;;;11.50;98.20;;;;;;5053602;28;20595;-76
2023/02/18 01:48:37;;;;;;;1.60;1.20;;;11.50;98.20;;;;;;5033274;28;20473;-75
2023/02/18 01:51:11;;;;;;;1.60;1.17;;;11.50;98.20;;;;;;5052015;28;20461;-76
2023/02/18 01:53:44;;;;;;;1.60;1.10;;;11.50;98.20;;;;;;5064500;28;20732;-75
2023/02/18 01:56:18;;;;;;;1.53;1.10;;;11.50;98.20;;;;;;5045616;28;20924;-75
2023/02/18 01:58:45;;;;;;;1.50;1.00;;;11.50;98.20;;;;;;5055441;28;20471;-76
2023/02/18 02:01:12;;;;;;;1.60;1.20;;;11.50;98.20;;;;;;5055173;28;20501;-75
2023/02/18 02:03:39;;;;;;;1.57;1.03;;;11.50;98.20;;;;;;5058434;28;20892;-75
2023/02/18 02:06:14;;;;;;;1.60;1.10;;;11.40;98.20;;;;;;5050205;28;20500;-75
2023/02/18 02:08:42;;;;;;;1.60;1.10;;;11.40;98.20;;;;;;5052540;28;20526;-75
2023/02/18 02:11:23;;;;;;;1.70;1.40;;;11.40;98.20;;;;;;5053875;28;20489;-75
2023/02/18 02:14:19;;;;;;;1.60;1.10;;;11.40;98.20;;;;;;5060233;28;20457;-76
2023/02/18 02:16:57;;;;;;;1.60;1.20;;;11.40;98.20;;;;;;5053364;28;21012;-75
2023/02/18 02:20:00;;;;;;;1.60;1.20;;;11.40;98.20;;;;;;5055550;28;20817;-75
2023/02/18 02:22:55;;;;;;;1.53;1.10;;;11.40;98.20;;;;;;4989470;28;20551;-75
2023/02/18 02:25:39;;;;;;;1.70;1.53;;;11.30;98.20;;;;;;5050088;28;20489;-75
2023/02/18 02:28:44;;;;;;;1.53;1.10;;;11.30;98.20;;;;;;5036788;28;20486;-75
2023/02/18 02:31:41;;;;;;;1.60;1.10;;;11.30;98.20;;;;;;5056271;28;20504;-76
2023/02/18 02:34:34;;;;;;;1.60;1.20;;;11.30;98.20;;;;;;5065168;28;20502;-75
2023/02/18 02:37:06;;;;;;;1.60;1.17;;;11.30;98.20;;;;;;5054633;28;20487;-76
2023/02/18 02:39:43;;;;;;;1.60;1.30;;;11.30;98.20;;;;;;5064563;28;20853;-76
2023/02/18 02:42:18;;;;;;;2.47;1.80;;;11.30;98.20;;;;;;5056796;28;20500;-75
2023/02/18 02:44:54;;;;;;;1.60;1.10;;;11.20;98.20;;;;;;5066049;28;20500;-77
2023/02/18 02:47:28;;;;;;;1.60;1.20;;;11.20;98.20;;;;;;5053848;28;20484;-75
2023/02/18 02:50:02;;;;;;;1.60;1.10;;;11.20;98.20;;;;;;5068753;28;20461;-75
2023/02/18 02:52:32;;;;;;;1.60;1.10;;;11.30;98.20;;;;;;5059577;28;20827;-75
2023/02/18 02:54:59;;;;;;;1.57;1.10;;;11.30;98.20;;;;;;5064142;28;20496;-75
2023/02/18 02:57:47;;;;;;;1.60;1.17;;;11.30;98.20;;;;;;5062021;28;20473;-75
2023/02/18 03:00:18;;;;;;;1.60;1.10;;;11.30;98.20;;;;;;5067843;28;20528;-75
2023/02/18 03:03:09;;;;;;;1.60;1.20;;;11.30;98.20;;;;;;5067730;28;20461;-75
2023/02/18 03:05:54;;;;;;;1.57;1.10;;;11.30;98.20;;;;;;5064348;28;20497;-75
2023/02/18 03:08:31;;;;;;;1.60;1.20;;;11.30;98.20;;;;;;5025636;28;20556;-76
2023/02/18 03:11:04;;;;;;;1.60;1.20;;;11.30;98.20;;;;;;5057488;28;20926;-76
2023/02/18 03:13:53;;;;;;;1.60;1.10;;;11.30;98.20;;;;;;5072477;28;20548;-75
2023/02/18 03:16:27;;;;;;;1.60;1.10;;;11.30;98.20;;;;;;5053470;28;20476;-75
2023/02/18 03:19:01;;;;;;;1.60;1.20;;;11.30;98.20;;;;;;5068032;28;20544;-75
2023/02/18 03:21:33;;;;;;;2.40;1.80;;;11.30;98.20;;;;;;5048716;28;20534;-76
2023/02/18 03:24:05;;;;;;;1.60;1.10;;;11.40;98.20;;;;;;5063352;28;20757;-76
2023/02/18 03:26:36;;;;;;;1.60;1.20;;;11.40;98.20;;;;;;5055549;28;20963;-76
2023/02/18 03:29:07;;;;;;;1.57;1.10;;;11.40;98.20;;;;;;5057204;28;20471;-76
2023/02/18 03:31:37;;;;;;;1.60;1.20;;;11.40;98.20;;;;;;5051228;28;20569;-76
2023/02/18 03:34:09;;;;;;;1.60;1.10;;;11.40;98.20;;;;;;5058571;28;21586;-76
2023/02/18 03:36:38;;;;;;;1.60;1.23;;;11.40;98.20;;;;;;5050925;28;21011;-75
2023/02/18 03:39:09;;;;;;;1.57;1.10;;;11.40;98.20;;;;;;5059440;28;20488;-75
2023/02/18 03:41:37;;;;;;;1.60;1.10;;;11.40;98.20;;;;;;5052123;28;20478;-74
2023/02/18 03:44:06;;;;;;;2.20;2.00;;;11.40;98.20;;;;;;5057506;28;20828;-75
2023/02/18 03:46:35;;;;;;;1.57;1.10;;;11.40;98.20;;;;;;5056343;28;20492;-76
2023/02/18 03:49:03;;;;;;;1.60;1.10;;;11.40;98.20;;;;;;5067455;28;20700;-75
2023/02/18 03:51:30;;;;;;;1.60;1.10;;;11.30;98.20;;;;;;5052518;28;20489;-76
2023/02/18 03:53:58;;;;;;;1.60;1.17;;;11.30;98.20;;;;;;5065233;28;20962;-76
2023/02/18 03:56:25;;;;;;;1.60;1.20;;;11.20;98.20;;;;;;5057776;28;20477;-77
2023/02/18 03:58:52;;;;;;;1.60;1.20;;;11.20;98.20;;;;;;5065954;28;20464;-76
2023/02/18 04:01:20;;;;;;;1.53;1.10;;;11.20;98.20;;;;;;5058371;28;20469;-76
2023/02/18 04:03:47;;;;;;;1.60;1.20;;;11.20;98.20;;;;;;5066168;28;20458;-76
2023/02/18 04:06:14;;;;;;;1.60;1.10;;;11.20;98.20;;;;;;5054969;28;20477;-76
2023/02/18 04:08:41;;;;;;;1.57;1.10;;;11.20;98.20;;;;;;5064977;28;20463;-77
2023/02/18 04:11:09;;;;;;;1.57;1.10;;;11.20;98.20;;;;;;5056025;28;20527;-76
2023/02/18 04:13:37;;;;;;;1.60;1.10;;;11.20;98.20;;;;;;5070702;28;20511;-79
2023/02/18 04:16:05;;;;;;;1.60;1.20;;;11.10;98.20;;;;;;5052024;28;20489;-77
2023/02/18 04:18:33;;;;;;;1.57;1.10;;;11.10;98.20;;;;;;5054128;28;20493;-77
2023/02/18 04:21:00;;;;;;;1.57;1.10;;;11.10;98.20;;;;;;5049788;28;20471;-78
2023/02/18 04:23:27;;;;;;;1.57;1.10;;;11.10;98.20;;;;;;5058807;28;20494;-77
2023/02/18 04:25:54;;;;;;;1.60;1.10;;;11.10;98.20;;;;;;5041394;28;20478;-77
2023/02/18 04:28:46;;;;;;;1.60;1.20;;;11.10;98.20;;;;;;5062475;28;20488;-77
2023/02/18 04:31:23;;;;;;;1.60;1.13;;;11.10;98.20;;;;;;5052045;28;20499;-77
2023/02/18 04:34:01;;;;;;;1.57;1.00;;;11.10;98.20;;;;;;5056980;28;20468;-78
2023/02/18 04:36:58;;;;;;;1.60;1.20;;;11.10;98.20;;;;;;5031907;28;20540;-78
2023/02/18 04:39:25;;;;;;;1.60;1.10;;;11.10;98.20;;;;;;5057251;28;20515;-77
2023/02/18 04:41:52;;;;;;;1.60;1.10;;;11.00;98.20;;;;;;5048662;28;20490;-76
2023/02/18 04:44:20;;;;;;;1.57;1.10;;;11.00;98.20;;;;;;5063787;28;20457;-76
2023/02/18 04:46:47;;;;;;;1.60;1.20;;;11.00;98.20;;;;;;5049079;28;20574;-77
2023/02/18 04:49:14;;;;;;;1.60;1.10;;;11.00;98.20;;;;;;5060259;28;20493;-77
2023/02/18 04:51:42;;;;;;;1.57;1.10;;;11.00;98.20;;;;;;5053806;28;20517;-77
2023/02/18 04:54:09;;;;;;;1.60;1.10;;;11.00;98.20;;;;;;5059921;28;20543;-76
2023/02/18 04:56:36;;;;;;;1.60;1.20;;;11.00;98.20;;;;;;5045714;28;20999;-77
2023/02/18 04:59:03;;;;;;;1.60;1.20;;;10.90;98.20;;;;;;5060613;28;20882;-77
2023/02/18 05:01:31;;;;;;;1.53;1.10;;;10.90;98.20;;;;;;5038888;28;20568;-78
2023/02/18 05:03:59;;;;;;;1.60;1.10;;;10.90;98.20;;;;;;5043632;28;20504;-77
2023/02/18 05:06:26;;;;;;;1.60;1.10;;;10.90;98.20;;;;;;5047712;28;20544;-76
2023/02/18 05:08:53;;;;;;;1.60;1.10;;;10.90;98.20;;;;;;5059867;28;20524;-77
2023/02/18 05:11:21;;;;;;;1.60;1.10;;;10.90;98.20;;;;;;5047792;28;20493;-76
2023/02/18 05:13:48;;;;;;;1.60;1.20;;;10.90;98.20;;;;;;5061823;28;20461;-77
2023/02/18 05:16:15;;;;;;;1.60;1.00;;;10.90;98.20;;;;;;5042755;28;21010;-77
2023/02/18 05:18:43;;;;;;;1.60;1.10;;;10.90;98.20;;;;;;5061434;28;20469;-78
2023/02/18 05:21:11;;;;;;;1.60;1.20;;;10.80;98.20;;;;;;5049863;28;20474;-77
2023/02/18 05:23:38;;;;;;;1.60;1.10;;;10.90;98.20;;;;;;5061850;28;20469;-78
2023/02/18 05:26:06;;;;;;;1.53;1.10;;;10.90;98.20;;;;;;5044534;28;20481;-76
2023/02/18 05:28:33;;;;;;;1.60;1.10;;;10.80;98.20;;;;;;5052656;28;20465;-76
2023/02/18 05:31:00;;;;;;;1.60;1.13;;;10.80;98.20;;;;;;5042336;28;20553;-77
2023/02/18 05:33:28;;;;;;;1.60;1.13;;;10.80;98.20;;;;;;5055952;28;20545;-76
2023/02/18 05:35:56;;;;;;;1.57;1.10;;;10.90;98.20;;;;;;5046839;28;20481;-77
2023/02/18 05:38:24;;;;;;;1.60;1.20;;;10.80;98.20;;;;;;5061952;28;20458;-77
2023/02/18 05:40:51;;;;;;;1.60;1.20;;;10.80;98.20;;;;;;5042762;28;20480;-77
2023/02/18 05:43:18;;;;;;;1.60;1.20;;;10.80;98.20;;;;;;5050573;28;20795;-77
2023/02/18 05:45:45;;;;;;;1.57;1.10;;;10.80;98.20;;;;;;5056313;28;20894;-77
2023/02/18 05:48:12;;;;;;;1.57;1.20;;;10.80;98.20;;;;;;5030295;28;20485;-77
2023/02/18 05:50:40;;;;;;;1.60;1.20;;;10.80;98.20;;;;;;5063005;28;20464;-77
2023/02/18 05:53:08;;;;;;;1.60;1.10;;;10.80;98.20;;;;;;5042814;28;20541;-79
2023/02/18 05:55:43;;;;;;;1.57;1.10;;;10.80;98.20;;;;;;5066724;28;20568;-77
2023/02/18 05:58:13;;;;;;;1.57;1.10;;;10.80;98.20;;;;;;5053067;28;20495;-77
2023/02/18 06:00:41;;;;;;;1.60;1.10;;;10.80;98.20;;;;;;5069316;28;20472;-76
2023/02/18 06:03:09;;;;;;;1.60;1.23;;;10.80;98.20;;;;;;5059496;28;20480;-76
2023/02/18 06:05:36;;;;;;;1.60;1.20;;;10.70;98.20;;;;;;5062002;28;20568;-77
2023/02/18 06:08:04;;;;;;;1.60;1.17;;;10.70;98.20;;;;;;5054944;28;20672;-76
2023/02/18 06:10:32;;;;;;;1.60;1.10;;;10.70;98.20;;;;;;5065938;28;20489;-76
2023/02/18 06:13:01;;;;;;;1.57;1.10;;;10.70;98.20;;;;;;5057747;28;20484;-77
2023/02/18 06:15:28;;;;;;;1.60;1.30;;;10.70;98.20;;;;;;5062785;28;20703;-76
2023/02/18 06:17:55;;;;;;;1.60;1.20;;;10.70;98.20;;;;;;5055002;28;20477;-76
2023/02/18 06:20:22;;;;;;;1.60;1.30;;;10.70;98.20;;;;;;5062636;28;20511;-79
2023/02/18 06:22:49;;;;;;;1.60;1.20;;;10.70;98.20;;;;;;5061624;28;20485;-76
2023/02/18 06:25:17;;;;;;;1.60;1.10;;;10.70;98.20;;;;;;5067147;28;21630;-76
2023/02/18 06:27:45;;;;;;;1.60;1.20;;;10.70;98.20;;;;;;5054809;28;20523;-78
2023/02/18 06:30:13;;;;;;;1.60;1.10;;;10.70;98.20;;;;;;5058275;28;20461;-77
2023/02/18 06:32:41;;;;;;;1.60;1.10;;;10.80;98.20;;;;;;5041725;28;20482;-77
2023/02/18 06:35:09;;;;;;;1.60;1.10;;;10.80;98.20;;;;;;5061778;28;21020;-76
2023/02/18 06:37:36;;;;;;;1.60;1.20;;;10.80;98.20;;;;;;5046107;28;20489;-76
2023/02/18 06:40:03;;;;;;;1.60;1.20;;;10.80;98.20;;;;;;5065804;28;20466;-77
2023/02/18 06:42:31;;;;;;;1.60;1.10;;;10.80;98.20;;;;;;5049922;28;21261;-76
2023/02/18 06:45:00;;;;;;;1.60;1.17;;;10.80;98.20;;;;;;5057493;28;20478;-77
2023/02/18 06:47:27;;;;;;;1.60;1.20;;;10.80;98.20;;;;;;5047228;28;21054;-77
2023/02/18 06:49:54;;;;;;;1.60;1.10;;;10.80;98.20;;;;;;5062237;28;20461;-77
2023/02/18 06:52:22;;;;;;;1.50;1.10;;;10.80;98.20;;;;;;5057962;28;20481;-78
2023/02/18 06:54:48;;;;;;;1.60;1.10;;;10.80;98.20;;;;;;5063573;28;20504;-78
2023/02/18 06:57:16;;;;;;;1.60;1.10;;;10.90;98.20;;;;;;5051832;28;20469;-78
2023/02/18 06:59:43;;;;;;;1.60;1.10;;;10.90;98.20;;;;;;5064666;28;21176;-77
2023/02/18 07:02:13;;;;;;;1.60;1.10;;;10.90;98.20;;;;;;5050811;28;20477;-76
2023/02/18 07:04:45;;;;;;;1.57;1.17;;;10.90;98.20;;;;;;5059294;28;20991;-77
2023/02/18 07:07:12;;;;;;;1.60;1.20;;;10.90;98.20;;;;;;5047899;28;20564;-78
2023/02/18 07:09:39;;;;;;;1.57;1.10;;;10.90;98.20;;;;;;5063252;28;20467;-79
2023/02/18 07:12:07;;;;;;;1.60;1.30;;;10.90;98.20;;;;;;5047488;28;20476;-77
2023/02/18 07:14:34;;;;;;;1.60;1.20;;;10.90;98.20;;;;;;5056921;28;20625;-78
2023/02/18 07:17:01;;;;;;;1.60;1.20;;;10.90;98.20;;;;;;5051465;28;20983;-77
2023/02/18 07:19:30;;;;;;;1.60;1.10;;;10.90;98.20;;;;;;5061954;28;20469;-78
2023/02/18 07:21:57;;;;;;;1.57;1.10;;;11.00;98.20;;;;;;5041726;28;20507;-78
2023/02/18 07:24:24;;;;;;;1.60;1.10;;;11.00;98.20;;;;;;5053219;28;20484;-77
2023/02/18 07:26:52;;;;;;;1.60;1.10;;;11.00;98.20;;;;;;5044372;28;20500;-77
2023/02/18 07:29:19;;;;;;;1.60;1.10;;;11.00;98.20;;;;;;5055824;28;21028;-77
2023/02/18 07:31:46;;;;;;;1.60;1.20;;;11.00;98.20;;;;;;5049810;28;20993;-78
2023/02/18 07:34:13;;;;;;;1.60;1.10;;;11.10;98.20;;;;;;5063901;28;20461;-77
2023/02/18 07:36:42;;;;;;;1.60;1.20;;;11.10;98.20;;;;;;5044130;28;20478;-77
2023/02/18 07:39:09;;;;;;;1.50;1.00;;;11.10;98.20;;;;;;5055586;28;20501;-78
2023/02/18 07:41:37;;;;;;;1.60;1.10;;;11.10;98.20;;;;;;5047242;28;20474;-79
2023/02/18 07:44:04;;;;;;;1.60;1.10;;;11.20;98.20;;;;;;5057009;28;20633;-77
2023/02/18 07:46:32;;;;;;;1.60;1.10;;;11.10;98.20;;;;;;5048653;28;20487;-78
2023/02/18 07:48:59;;;;;;;1.60;1.10;;;11.10;98.20;;;;;;5067296;28;20466;-78
2023/02/18 07:51:28;;;;;;;1.60;1.17;;;11.10;98.20;;;;;;5058669;28;20517;-76
2023/02/18 07:53:56;;;;;;;1.60;1.20;;;11.10;98.20;;;;;;5060456;28;20462;-77
2023/02/18 07:56:24;;;;;;;1.97;1.63;;;11.00;98.20;;;;;;5040947;28;20508;-77
2023/02/18 07:58:51;;;;;;;1.60;1.17;;;11.00;98.20;;;;;;5050369;28;20460;-76
2023/02/18 08:01:18;;;;;;;1.57;1.10;;;10.90;98.20;;;;;;5048058;28;20474;-76
2023/02/18 08:03:45;;;;;;;1.60;1.20;;;10.80;98.20;;;;;;5050764;28;20454;-76
2023/02/18 08:06:22;;;;;;;1.57;1.10;;;10.80;98.20;;;;;;5042555;28;20482;-76
2023/02/18 08:08:49;;;;;;;1.57;1.10;;;10.80;98.20;;;;;;5052392;28;20462;-76
2023/02/18 08:11:18;;;;;;;1.60;1.10;;;10.80;98.20;;;;;;5048704;28;20505;-76
2023/02/18 08:13:45;;;;;;;1.60;1.10;;;10.80;98.20;;;;;;5059128;28;20545;-76
2023/02/18 08:16:12;;;;;;;60.97;10.70;;;10.80;98.20;;;;;;5045026;28;20990;-76
2023/02/18 08:18:39;;;;;;;1.60;1.17;;;10.70;98.20;;;;;;5063118;28;20507;-76
2023/02/18 08:21:06;;;;;;;1.60;1.10;;;10.70;98.20;;;;;;5053507;28;20457;-77
2023/02/18 08:23:33;;;;;;;1.60;1.10;;;10.60;98.20;;;;;;5067966;28;20484;-78
2023/02/18 08:26:01;;;;;;;1.60;1.20;;;10.60;98.20;;;;;;5054710;28;20507;-80
2023/02/18 08:28:29;;;;;;;1.60;1.10;;;10.50;98.20;;;;;;5067357;28;20521;-77
2023/02/18 08:31:00;;;;;;;1.60;1.10;;;10.50;98.20;;;;;;5049537;28;20598;-77
2023/02/18 08:33:27;;;;;;;1.60;1.10;;;10.50;98.20;;;;;;5053897;28;20945;-76
2023/02/18 08:35:55;;;;;;;1.60;1.10;;;10.40;98.20;;;;;;5046051;28;21091;-77
2023/02/18 08:38:24;;;;;;;1.57;1.10;;;10.40;98.20;;;;;;5064456;28;20472;-77
2023/02/18 08:40:51;;;;;;;1.60;1.20;;;10.40;98.20;;;;;;5044816;28;20459;-72
2023/02/18 08:43:18;;;;;;;1.60;1.20;;;10.40;98.20;;;;;;5063986;28;20469;-78
2023/02/18 08:45:47;;;;;;;1.60;1.10;;;10.40;98.20;;;;;;5056189;28;20485;-77
2023/02/18 08:48:15;;;;;;;1.60;1.10;;;10.40;98.20;;;;;;5030058;28;20540;-77
2023/02/18 08:50:42;;;;;;;1.60;1.10;;;10.40;98.20;;;;;;5060706;28;20789;-76
2023/02/18 08:53:10;;;;;;;1.60;1.10;;;10.40;98.20;;;;;;5045479;28;20481;-76
2023/02/18 08:55:41;;;;;;;1.60;1.20;;;10.40;98.20;;;;;;5038807;28;20473;-76
2023/02/18 08:58:08;;;;;;;1.60;1.20;;;10.50;98.20;;;;;;5052100;28;20478;-76
2023/02/18 09:00:36;;;;;;;1.60;1.10;;;10.50;98.20;;;;;;5054288;28;20464;-78
2023/02/18 09:03:06;;;;;;;1.60;1.20;;;10.60;98.20;;;;;;5034197;28;20477;-77
2023/02/18 09:05:34;;;;;;;1.60;1.20;;;10.60;98.20;;;;;;5056202;28;20568;-77
2023/02/18 09:08:02;;;;;;;1.60;1.30;;;10.70;98.20;;;;;;5040220;28;20902;-77
2023/02/18 09:10:30;;;;;;;1.60;1.10;;;10.70;98.20;;;;;;5054890;28;20569;-77
2023/02/18 09:12:57;;;;;;;1.60;1.30;;;10.70;98.20;;;;;;5047498;28;20888;-77
2023/02/18 09:15:28;;;;;;;1.60;1.10;;;10.60;98.20;;;;;;5054577;28;20481;-77
2023/02/18 09:17:55;;;;;;;1.60;1.10;;;10.60;98.20;;;;;;5034408;28;20586;-77
2023/02/18 09:20:25;;;;;;;1.60;1.10;;;10.60;98.20;;;;;;5060399;28;20474;-78
2023/02/18 09:22:54;;;;;;;1.53;1.10;;;10.70;98.20;;;;;;5050960;28;20489;-77
2023/02/18 09:25:23;;;;;;;1.53;1.00;;;10.70;98.20;;;;;;5055286;28;20839;-77
2023/02/18 09:27:52;;;;;;;1.60;1.20;;;10.70;98.20;;;;;;5044483;28;20477;-77
2023/02/18 09:30:20;;;;;;;1.60;1.10;;;10.80;98.20;;;;;;5053911;28;21053;-78
2023/02/18 09:32:52;;;;;;;1.60;1.20;;;10.80;98.20;;;;;;5047068;28;20896;-78
2023/02/18 09:35:19;;;;;;;1.60;1.10;;;10.80;98.20;;;;;;5047684;28;20983;-77
2023/02/18 09:37:48;;;;;;;1.57;1.10;;;10.90;98.20;;;;;;5036676;28;20480;-78
2023/02/18 09:40:26;;;;;;;1.60;1.10;;;10.90;98.20;;;;;;5057958;28;20545;-76
2023/02/18 09:42:57;;;;;;;1.60;1.20;;;10.90;98.20;;;;;;5043860;28;21052;-78
2023/02/18 09:45:27;;;;;;;1.60;1.10;;;10.90;98.20;;;;;;5049642;28;20489;-77
2023/02/18 09:47:55;;;;;;;1.60;1.20;;;10.90;98.20;;;;;;5045247;28;20511;-77
2023/02/18 09:50:26;;;;;;;1.60;1.20;;;10.90;98.20;;;;;;5050923;28;20462;-77
2023/02/18 09:53:00;;;;;;;1.60;1.20;;;10.90;98.20;;;;;;5043813;28;20614;-77
2023/02/18 09:55:30;;;;;;;1.60;1.10;;;11.00;98.20;;;;;;5054237;28;20969;-76
2023/02/18 09:58:02;;;;;;;1.57;1.10;;;11.00;98.20;;;;;;5045520;28;21041;-77
2023/02/18 10:00:34;;;;;;;1.60;1.30;;;11.00;98.20;;;;;;5051296;28;20492;-76
2023/02/18 10:03:05;;;;;;;1.53;1.10;;;11.00;98.20;;;;;;5033248;28;20524;-76
2023/02/18 10:05:34;;;;;;;1.60;1.10;;;11.00;98.20;;;;;;5053139;28;20497;-76
2023/02/18 10:08:06;;;;;;;1.60;1.10;;;11.10;98.20;;;;;;5043381;28;20545;-76
2023/02/18 10:10:40;;;;;;;1.60;1.20;;;11.10;98.20;;;;;;5055779;28;20454;-77
2023/02/18 10:13:13;;;;;;;1.60;1.20;;;11.10;98.20;;;;;;5044975;28;20492;-76
2023/02/18 10:15:44;;;;;;;1.57;1.13;;;11.10;98.20;;;;;;5051743;28;20573;-77
2023/02/18 10:18:24;;;;;;;1.60;1.10;;;11.10;98.20;;;;;;5045961;28;20480;-77
2023/02/18 10:20:53;;;;;;;1.57;1.10;;;11.10;98.20;;;;;;5046052;28;20576;-76
2023/02/18 10:23:25;;;;;;;1.60;1.20;;;11.20;98.20;;;;;;5056145;28;20539;-76
2023/02/18 10:25:53;;;;;;;1.60;1.10;;;11.10;98.20;;;;;;5041019;28;20568;-76
2023/02/18 10:28:25;;;;;;;1.60;1.20;;;11.20;98.20;;;;;;5047236;28;20489;-77
2023/02/18 10:30:58;;;;;;;1.60;1.10;;;11.10;98.20;;;;;;5037832;28;20464;-76
2023/02/18 10:33:34;;;;;;;1.57;1.10;;;11.10;98.20;;;;;;5054489;28;20501;-76
2023/02/18 10:36:14;;;;;;;1.57;1.10;;;11.20;98.20;;;;;;5041555;28;21012;-77
2023/02/18 10:38:54;;;;;;;1.57;1.07;;;11.20;98.20;;;;;;5057733;28;20584;-76
2023/02/18 10:41:27;;;;;;;1.60;1.10;;;11.20;98.20;;;;;;5043342;28;21064;-76
2023/02/18 10:44:04;;;;;;;1.60;1.20;;;11.20;98.20;;;;;;5056541;28;20515;-74
2023/02/18 10:46:44;;;;;;;1.60;1.10;;;11.20;98.20;;;;;;5044873;28;20580;-75
2023/02/18 10:49:34;;;;;;;1.60;1.10;;;11.20;98.20;;;;;;5051792;28;20573;-75
2023/02/18 10:52:05;;;;;;;1.60;1.20;;;11.10;98.20;;;;;;5036970;28;20481;-76
2023/02/18 10:57:25;;;;;;;1.57;1.10;;;11.00;98.20;;;;;;5027881;27;1512270;-77
2023/02/18 10:59:59;;;;;;;1.60;1.10;;;10.90;98.20;;;;;;5071210;28;20270;-76
2023/02/18 11:02:30;;;;;;;1.60;1.10;;;10.80;98.20;;;;;;5064653;28;20484;-76
2023/02/18 11:05:00;;;;;;;1.57;1.10;;;10.80;98.20;;;;;;5075593;28;20899;-75
2023/02/18 11:07:31;;;;;;;1.53;1.10;;;10.80;98.20;;;;;;5061590;28;20504;-75
2023/02/18 11:10:02;;;;;;;1.53;1.00;;;10.80;98.20;;;;;;5076373;28;20457;-75
2023/02/18 11:12:40;;;;;;;1.57;1.10;;;10.90;98.20;;;;;;5072059;28;20480;-75
2023/02/18 11:15:19;;;;;;;1.60;1.10;;;10.90;98.20;;;;;;5082453;28;20473;-75
2023/02/18 11:17:47;;;;;;;1.53;1.00;;;10.90;98.20;;;;;;5056066;28;21247;-75
2023/02/18 11:20:30;;;;;;;1.53;1.00;;;11.00;98.20;;;;;;5079642;28;20465;-75
2023/02/18 11:23:00;;;;;;;1.60;1.10;;;11.00;98.20;;;;;;5057153;28;20544;-76
2023/02/18 11:25:32;;;;;;;1.60;1.30;;;11.00;98.20;;;;;;5072652;28;20484;-75
2023/02/18 11:28:04;;;;;;;1.57;1.10;;;11.00;98.20;;;;;;5050673;28;20573;-77
2023/02/18 11:30:34;;;;;;;1.57;1.00;;;11.10;98.20;;;;;;5077278;28;20465;-76
2023/02/18 11:33:06;;;;;;;1.60;1.27;;;11.00;98.20;;;;;;5054058;28;20485;-75
2023/02/18 11:35:34;;;;;;;1.60;1.07;;;11.00;98.20;;;;;;5074785;28;20572;-75
2023/02/18 11:38:15;;;;;;;1.60;1.10;;;11.00;98.20;;;;;;5066184;28;20472;-76
2023/02/18 11:40:42;;;;;;;1.53;1.10;;;11.00;98.20;;;;;;5074423;28;20464;-76
2023/02/18 11:43:15;;;;;;;1.57;1.10;;;11.00;98.20;;;;;;5051785;28;20500;-75
2023/02/18 11:45:43;;;;;;;1.60;1.20;;;11.00;98.20;;;;;;5074477;28;20992;-75
2023/02/18 11:48:16;;;;;;;1.57;1.10;;;11.00;98.20;;;;;;5069480;28;20872;-76
2023/02/18 11:50:45;;;;;;;1.60;1.20;;;11.00;98.20;;;;;;5075684;28;20548;-76
2023/02/18 11:53:28;;;;;;;1.60;1.20;;;11.00;98.20;;;;;;5071228;28;20479;-75
2023/02/18 11:55:57;;;;;;;1.60;1.10;;;11.00;98.20;;;;;;5062682;28;20491;-76
2023/02/18 11:58:27;;;;;;;1.57;1.20;;;11.00;98.20;;;;;;5075168;28;20945;-76
2023/02/18 12:00:56;;;;;;;1.50;1.00;;;11.00;98.20;;;;;;5065926;28;20467;-75
2023/02/18 12:03:31;;;;;;;1.60;1.20;;;11.00;98.20;;;;;;5068382;28;20884;-75
2023/02/18 12:06:02;;;;;;;1.57;1.07;;;11.00;98.20;;;;;;5069699;28;20852;-75
2023/02/18 12:08:35;;;;;;;1.57;1.10;;;11.10;98.20;;;;;;5059571;28;20465;-76
2023/02/18 12:11:07;;;;;;;1.60;1.10;;;11.10;98.20;;;;;;5054955;28;20462;-75
2023/02/18 12:13:39;;;;;;;1.60;1.03;;;11.10;98.20;;;;;;5058315;28;20453;-75
2023/02/18 12:16:17;;;;;;;1.60;1.20;;;11.10;98.20;;;;;;5053927;28;20691;-76
2023/02/18 12:19:27;;;;;;;1.53;1.10;;;11.10;98.20;;;;;;5053750;28;20510;-78
2023/02/18 12:22:02;;;;;;;1.60;1.20;;;11.10;98.20;;;;;;5054486;28;20510;-76
2023/02/18 12:24:45;;;;;;;1.60;1.10;;;11.10;98.20;;;;;;5066564;28;20556;-76
2023/02/18 12:27:20;;;;;;;1.60;1.00;;;11.10;98.20;;;;;;5047023;28;20853;-75
2023/02/18 12:30:10;;;;;;;1.60;1.10;;;11.10;98.20;;;;;;5063048;28;20465;-76
2023/02/18 12:32:46;;;;;;;1.60;1.20;;;11.20;98.20;;;;;;5044025;28;20486;-75
2023/02/18 12:35:41;;;;;;;1.60;1.10;;;11.20;98.20;;;;;;5070730;28;20502;-75
2023/02/18 12:38:32;;;;;;;1.57;1.00;;;11.10;98.20;;;;;;5044430;28;21076;-75
2023/02/18 12:41:23;;;;;;;1.53;1.10;;;11.10;98.20;;;;;;5059617;28;20700;-76
2023/02/18 12:44:01;;;;;;;1.53;1.00;;;11.10;98.20;;;;;;5052183;28;20468;-76
2023/02/18 12:46:47;;;;;;;1.60;1.10;;;11.20;98.20;;;;;;5048091;28;20481;-75
2023/02/18 12:49:32;;;;;;;1.57;1.03;;;11.20;98.20;;;;;;5060864;28;20523;-76
2023/02/18 12:52:15;;;;;;;1.60;1.17;;;11.20;98.20;;;;;;5043751;28;20507;-76
2023/02/18 12:55:16;;;;;;;1.57;1.00;;;11.20;98.20;;;;;;5055482;28;21057;-76
2023/02/18 12:57:48;;;;;;;1.60;1.10;;;11.20;98.20;;;;;;5044366;28;20481;-75
2023/02/18 13:00:49;;;;;;;2.07;1.87;;;11.10;98.20;;;;;;5059202;28;21733;-76
2023/02/18 13:03:53;;;;;;;1.57;1.10;;;11.10;98.20;;;;;;5032320;28;20922;-76
2023/02/18 13:06:37;;;;;;;1.60;1.10;;;11.10;98.20;;;;;;5045972;28;20536;-75
2023/02/18 13:09:13;;;;;;;1.60;1.20;;;11.10;98.20;;;;;;5054824;28;21040;-75
2023/02/18 13:11:52;;;;;;;1.53;1.10;;;11.10;98.20;;;;;;5043874;28;20477;-76